createdAt,value
2019-05-11T00:03:24.159Z,6.20
2019-05-11T00:06:05.947Z,6.57
2019-05-11T00:09:07.383Z,7.00
2019-05-11T00:12:08.593Z,6.70
2019-05-11T00:14:50.984Z,6.50
2019-05-11T00:17:33.608Z,6.93
2019-05-11T00:20:41.075Z,6.87
2019-05-11T00:23:23.732Z,7.03
2019-05-11T00:26:05.495Z,7.30
2019-05-11T00:28:47.735Z,6.67
2019-05-11T00:37:40.130Z,5.90
2019-05-11T00:40:41.859Z,6.57
2019-05-11T00:47:03.787Z,7.10
2019-05-11T00:49:46.480Z,6.83
2019-05-11T00:52:47.768Z,6.63
2019-05-11T00:55:49.123Z,6.35
2019-05-11T00:58:50.991Z,6.80
2019-05-11T01:01:52.131Z,7.07
2019-05-11T01:05:00.568Z,6.13
2019-05-11T01:10:48.330Z,6.07
2019-05-11T01:17:11.407Z,5.40
2019-05-11T01:19:53.744Z,6.43
2019-05-11T01:23:01.189Z,6.30
2019-05-11T01:25:43.815Z,6.07
2019-05-11T01:28:35.155Z,5.83
2019-05-11T01:31:16.896Z,7.73
2019-05-11T01:33:59.403Z,7.10
2019-05-11T01:39:57.551Z,6.27
2019-05-11T01:42:58.642Z,6.43
2019-05-11T01:48:52.179Z,6.17
2019-05-11T01:54:48.499Z,6.70
2019-05-11T01:57:30.831Z,6.43
2019-05-11T02:00:12.831Z,6.33
2019-05-11T02:06:53.171Z,5.20
2019-05-11T02:10:03.122Z,5.30
2019-05-11T02:12:34.036Z,5.27
2019-05-11T02:24:34.908Z,4.30
2019-05-11T02:27:17.695Z,4.77
2019-05-11T02:30:00.431Z,4.33
2019-05-11T02:33:10.843Z,3.87
2019-05-11T02:35:52.912Z,4.40
2019-05-11T02:38:54.301Z,3.90
2019-05-11T02:41:37.547Z,3.50
2019-05-11T02:44:20.316Z,3.43
2019-05-11T02:47:03.234Z,3.87
2019-05-11T02:49:45.553Z,3.70
2019-05-11T02:52:28.176Z,3.90
2019-05-11T02:58:25.076Z,3.63
2019-05-11T03:01:07.262Z,3.93
2019-05-11T03:03:49.888Z,3.33
2019-05-11T03:10:01.319Z,3.40
2019-05-11T03:12:45.052Z,3.53
2019-05-11T03:15:45.950Z,2.43
2019-05-11T03:18:47.117Z,4.13
2019-05-11T03:21:29.256Z,3.27
2019-05-11T03:24:11.551Z,6.63
2019-05-11T03:30:15.636Z,2.50
2019-05-11T03:33:25.651Z,2.50
2019-05-11T03:36:07.899Z,1.63
2019-05-11T03:42:13.774Z,2.87
2019-05-11T03:45:08.656Z,3.10
2019-05-11T03:47:50.908Z,4.70
2019-05-11T03:50:32.911Z,3.90
2019-05-11T03:53:15.483Z,4.47
2019-05-11T03:59:11.734Z,2.03
2019-05-11T04:01:53.613Z,1.50
2019-05-11T04:04:36.506Z,2.40
2019-05-11T04:10:28.805Z,1.77
2019-05-11T04:16:33.437Z,3.30
2019-05-11T04:19:34.561Z,3.10
2019-05-11T04:25:02.394Z,3.10
2019-05-11T04:27:44.743Z,3.40
2019-05-11T04:30:26.746Z,3.40
2019-05-11T04:33:08.895Z,3.20
2019-05-11T04:35:51.391Z,3.70
2019-05-11T04:38:33.485Z,3.77
2019-05-11T04:41:15.684Z,3.47
2019-05-11T04:43:58.197Z,3.00
2019-05-11T04:46:40.500Z,4.10
2019-05-11T04:49:23.183Z,3.50
2019-05-11T04:52:05.843Z,3.60
2019-05-11T04:54:48.525Z,3.00
2019-05-11T04:57:31.049Z,3.27
2019-05-11T05:00:12.884Z,4.07
2019-05-11T05:02:55.119Z,2.77
2019-05-11T05:05:37.959Z,2.80
2019-05-11T05:08:26.090Z,3.23
2019-05-11T05:11:05.040Z,3.37
2019-05-11T05:13:47.842Z,3.57
2019-05-11T05:16:31.464Z,3.07
2019-05-11T05:19:14.127Z,3.00
2019-05-11T05:21:55.907Z,3.33
2019-05-11T05:24:38.431Z,3.63
2019-05-11T05:27:20.141Z,3.40
2019-05-11T05:30:02.929Z,2.70
2019-05-11T05:32:45.403Z,3.00
2019-05-11T05:35:27.638Z,3.43
2019-05-11T05:38:09.436Z,3.10
2019-05-11T05:40:51.784Z,3.43
2019-05-11T05:43:33.954Z,2.97
2019-05-11T05:46:16.132Z,3.20
2019-05-11T05:48:58.970Z,3.40
2019-05-11T05:51:40.747Z,2.60
2019-05-11T05:54:22.835Z,3.07
2019-05-11T05:57:05.212Z,2.73
2019-05-11T05:59:36.023Z,2.90
2019-05-11T06:08:21.155Z,2.63
2019-05-11T06:11:03.015Z,2.57
2019-05-11T06:13:45.897Z,2.80
2019-05-11T06:16:28.688Z,2.73
2019-05-11T06:19:10.910Z,3.03
2019-05-11T06:21:42.499Z,3.00
2019-05-11T06:24:32.350Z,2.73
2019-05-11T06:30:20.516Z,2.43
2019-05-11T06:33:03.313Z,2.70
2019-05-11T06:35:45.924Z,2.77
2019-05-11T06:38:28.094Z,2.70
2019-05-11T06:41:10.187Z,2.33
2019-05-11T06:44:01.452Z,2.35
2019-05-11T06:46:35.492Z,2.47
2019-05-11T06:49:17.435Z,2.00
2019-05-11T06:52:00.282Z,2.25
2019-05-11T06:54:42.401Z,1.97
2019-05-11T06:57:24.291Z,2.40
2019-05-11T07:00:06.539Z,2.20
2019-05-11T07:02:49.227Z,2.50
2019-05-11T07:05:31.632Z,2.47
2019-05-11T07:08:13.475Z,2.13
2019-05-11T07:10:56.003Z,2.53
2019-05-11T07:17:16.495Z,2.50
2019-05-11T07:26:11.556Z,2.40
2019-05-11T07:28:53.999Z,2.30
2019-05-11T07:31:36.605Z,1.90
2019-05-11T07:34:19.279Z,2.00
2019-05-11T07:37:01.759Z,1.87
2019-05-11T07:39:44.775Z,2.23
2019-05-11T07:42:28.612Z,3.17
2019-05-11T07:45:10.676Z,2.47
2019-05-11T07:47:53.111Z,2.40
2019-05-11T07:50:35.840Z,2.20
2019-05-11T07:53:18.732Z,2.57
2019-05-11T07:56:00.924Z,2.13
2019-05-11T07:58:47.876Z,2.50
2019-05-11T08:01:29.356Z,2.20
2019-05-11T08:04:11.603Z,2.40
2019-05-11T08:06:53.977Z,2.17
2019-05-11T08:09:38.048Z,2.00
2019-05-11T08:12:20.312Z,2.10
2019-05-11T08:15:09.106Z,2.37
2019-05-11T08:17:48.840Z,2.10
2019-05-11T08:20:31.727Z,2.20
2019-05-11T08:23:13.466Z,3.43
2019-05-11T08:25:57.902Z,2.27
2019-05-11T08:28:38.983Z,2.80
2019-05-11T08:34:00.460Z,2.43
2019-05-11T08:36:43.075Z,2.30
2019-05-11T08:39:24.951Z,2.33
2019-05-11T08:42:08.728Z,2.40
2019-05-11T08:44:50.847Z,2.10
2019-05-11T08:47:33.589Z,2.00
2019-05-11T08:50:18.536Z,2.10
2019-05-11T08:53:00.329Z,2.42
2019-05-11T08:55:43.055Z,2.03
2019-05-11T08:58:27.631Z,2.58
2019-05-11T09:01:09.004Z,2.13
2019-05-11T09:03:51.203Z,2.07
2019-05-11T09:06:33.497Z,2.20
2019-05-11T09:09:17.915Z,2.47
2019-05-11T09:11:59.910Z,2.10
2019-05-11T09:14:41.799Z,2.27
2019-05-11T09:17:23.999Z,2.30
2019-05-11T09:20:08.704Z,2.30
2019-05-11T09:22:50.608Z,2.13
2019-05-11T09:25:32.935Z,1.93
2019-05-11T09:28:17.835Z,2.13
2019-05-11T09:30:59.997Z,2.10
2019-05-11T09:33:43.019Z,2.27
2019-05-11T09:36:25.215Z,2.40
2019-05-11T09:39:08.494Z,1.87
2019-05-11T09:41:50.716Z,2.50
2019-05-11T09:47:22.811Z,2.10
2019-05-11T09:50:04.687Z,2.43
2019-05-11T09:52:48.704Z,2.10
2019-05-11T09:58:38.456Z,2.47
2019-05-11T10:01:39.175Z,2.23
2019-05-11T10:04:21.584Z,2.20
2019-05-11T10:07:04.671Z,1.90
2019-05-11T10:09:47.839Z,2.27
2019-05-11T10:12:33.776Z,2.23
2019-05-11T10:15:15.967Z,2.30
2019-05-11T10:17:59.819Z,2.27
2019-05-11T10:20:41.751Z,2.13
2019-05-11T10:23:24.730Z,1.80
2019-05-11T10:26:07.981Z,2.00
2019-05-11T10:28:50.095Z,2.25
2019-05-11T10:31:34.231Z,2.27
2019-05-11T10:34:17.923Z,2.10
2019-05-11T10:37:08.385Z,2.33
2019-05-11T10:40:09.829Z,1.90
2019-05-11T10:42:51.980Z,2.10
2019-05-11T10:45:37.751Z,2.17
2019-05-11T10:48:19.040Z,1.90
2019-05-11T10:51:01.375Z,1.90
2019-05-11T10:53:43.202Z,1.97
2019-05-11T10:56:25.387Z,1.87
2019-05-11T10:59:10.673Z,2.23
2019-05-11T11:01:41.178Z,2.20
2019-05-11T11:10:28.619Z,2.00
2019-05-11T11:16:05.539Z,2.13
2019-05-11T11:19:07.641Z,2.10
2019-05-11T11:21:50.150Z,1.60
2019-05-11T11:28:01.874Z,1.70
2019-05-11T11:30:43.655Z,2.27
2019-05-11T11:33:27.705Z,1.90
2019-05-11T11:36:09.843Z,2.17
2019-05-11T11:38:52.095Z,1.97
2019-05-11T11:41:37.909Z,1.83
2019-05-11T11:47:00.264Z,2.00
2019-05-11T11:49:42.268Z,2.00
2019-05-11T11:52:24.783Z,1.80
2019-05-11T11:55:08.331Z,1.93
2019-05-11T11:57:50.572Z,1.90
2019-05-11T12:00:32.439Z,2.00
2019-05-11T12:03:15.619Z,2.00
2019-05-11T12:05:58.127Z,1.97
2019-05-11T12:15:11.511Z,1.73
2019-05-11T12:18:13.103Z,1.60
2019-05-11T12:21:15.715Z,1.57
2019-05-11T12:23:58.579Z,1.87
2019-05-11T12:29:39.675Z,2.07
2019-05-11T12:35:28.461Z,1.80
2019-05-11T12:38:10.743Z,1.87
2019-05-11T12:41:11.394Z,1.40
2019-05-11T12:43:53.283Z,1.80
2019-05-11T12:46:37.366Z,1.60
2019-05-11T12:49:39.095Z,1.70
2019-05-11T12:55:52.472Z,1.70
2019-05-11T13:01:58.800Z,1.80
2019-05-11T13:04:59.355Z,1.70
2019-05-11T13:08:00.459Z,1.50
2019-05-11T13:13:28.219Z,1.73
2019-05-11T13:16:10.020Z,1.90
2019-05-11T13:19:10.667Z,1.70
2019-05-11T13:21:52.453Z,1.97
2019-05-11T13:24:34.782Z,1.63
2019-05-11T13:27:17.948Z,1.87
2019-05-11T13:30:19.138Z,2.00
2019-05-11T13:33:01.679Z,1.77
2019-05-11T13:35:44.131Z,1.77
2019-05-11T13:41:57.819Z,1.67
2019-05-11T13:47:33.307Z,1.80
2019-05-11T13:50:34.011Z,1.70
2019-05-11T13:53:18.197Z,1.70
2019-05-11T13:55:59.327Z,1.63
2019-05-11T14:01:27.837Z,1.70
2019-05-11T14:04:10.736Z,1.70
2019-05-11T14:06:41.580Z,1.63
2019-05-11T14:09:31.251Z,1.70
2019-05-11T14:15:23.176Z,1.20
2019-05-11T14:18:08.707Z,1.70
2019-05-11T14:20:39.715Z,1.73
2019-05-11T14:26:48.786Z,1.33
2019-05-11T14:29:38.468Z,2.90
2019-05-11T14:35:48.951Z,3.87
2019-05-11T14:38:30.947Z,4.50
2019-05-11T14:44:34.024Z,3.60
2019-05-11T14:47:23.656Z,3.17
2019-05-11T14:50:25.214Z,3.40
2019-05-11T14:53:08.588Z,6.30
2019-05-11T14:55:39.552Z,2.07
2019-05-11T14:58:29.039Z,1.43
2019-05-11T15:01:14.790Z,3.77
2019-05-11T15:04:15.031Z,4.57
2019-05-11T15:06:57.909Z,2.07
2019-05-11T15:09:40.716Z,5.80
2019-05-11T15:12:42.288Z,3.17
2019-05-11T15:15:43.839Z,2.93
2019-05-11T15:18:36.059Z,1.80
2019-05-11T15:21:10.823Z,1.70
2019-05-11T15:24:12.316Z,2.43
2019-05-11T15:27:13.819Z,2.13
2019-05-11T15:29:55.699Z,2.70
2019-05-11T15:32:38.316Z,3.20
2019-05-11T15:35:39.241Z,2.03
2019-05-11T15:38:21.331Z,1.20
2019-05-11T15:41:03.607Z,1.20
2019-05-11T15:44:05.674Z,1.40
2019-05-11T15:46:47.994Z,1.70
2019-05-11T15:49:30.546Z,1.20
2019-05-11T15:52:32.055Z,1.70
2019-05-11T15:55:14.822Z,1.30
2019-05-11T15:57:57.363Z,1.20
2019-05-11T16:07:29.380Z,1.23
2019-05-11T16:12:58.421Z,1.23
2019-05-11T16:15:40.420Z,1.57
2019-05-11T16:21:53.348Z,1.60
2019-05-11T16:28:05.007Z,1.40
2019-05-11T16:30:48.624Z,1.20
2019-05-11T16:33:55.663Z,1.00
2019-05-11T16:36:56.676Z,1.20
2019-05-11T16:39:38.634Z,1.37
2019-05-11T16:42:21.087Z,1.37
2019-05-11T16:48:59.743Z,1.73
2019-05-11T16:54:38.808Z,1.73
2019-05-11T16:57:22.090Z,1.37
2019-05-11T17:03:33.785Z,1.20
2019-05-11T17:06:34.676Z,1.30
2019-05-11T17:09:18.058Z,1.30
2019-05-11T17:12:03.721Z,1.30
2019-05-11T17:14:49.579Z,1.40
2019-05-11T17:17:50.672Z,1.53
2019-05-11T17:20:32.419Z,1.30
2019-05-11T17:26:44.138Z,1.33
2019-05-11T17:32:20.191Z,1.43
2019-05-11T17:35:21.008Z,1.27
2019-05-11T17:38:03.679Z,0.97
2019-05-11T17:44:43.903Z,1.00
2019-05-11T17:47:28.216Z,0.97
2019-05-11T17:53:38.678Z,1.17
2019-05-11T17:56:39.832Z,1.20
2019-05-11T17:59:23.843Z,1.20
2019-05-11T18:06:03.301Z,1.13
2019-05-11T18:09:08.436Z,1.07
2019-05-11T18:11:50.552Z,1.20
2019-05-11T18:18:30.070Z,1.30
2019-05-11T18:21:12.602Z,1.53
2019-05-11T18:24:13.729Z,1.30
2019-05-11T18:27:14.249Z,1.20
2019-05-11T18:29:44.671Z,1.03
2019-05-11T18:35:58.597Z,1.00
2019-05-11T18:38:41.247Z,1.03
2019-05-11T18:44:18.767Z,1.10
2019-05-11T18:47:01.421Z,1.10
2019-05-11T18:50:02.792Z,1.10
2019-05-11T18:53:02.940Z,1.00
2019-05-11T18:55:45.083Z,1.20
2019-05-11T18:58:47.791Z,1.10
2019-05-11T19:01:55.103Z,1.43
2019-05-11T19:04:38.146Z,1.30
2019-05-11T19:10:49.046Z,1.30
2019-05-11T19:17:29.252Z,1.27
2019-05-11T19:20:10.978Z,1.40
2019-05-11T19:26:51.330Z,1.20
2019-05-11T19:29:54.211Z,1.37
2019-05-11T19:32:38.333Z,1.10
2019-05-11T19:39:19.364Z,1.23
2019-05-11T19:42:19.199Z,1.20
2019-05-11T19:45:01.306Z,1.27
2019-05-11T19:51:18.695Z,1.42
2019-05-11T19:57:58.152Z,1.13
2019-05-11T20:01:01.248Z,1.30
2019-05-11T20:03:43.495Z,1.20
2019-05-11T20:06:44.987Z,1.20
2019-05-11T20:09:28.271Z,1.13
2019-05-11T20:15:40.211Z,1.30
2019-05-11T20:18:41.319Z,1.63
2019-05-11T20:21:23.399Z,1.30
2019-05-11T20:27:34.659Z,1.13
2019-05-11T20:30:35.536Z,1.50
2019-05-11T20:33:18.899Z,1.53
2019-05-11T20:39:30.430Z,1.20
2019-05-11T20:45:03.673Z,1.20
2019-05-11T20:48:08.404Z,1.20
2019-05-11T20:50:38.805Z,1.43
2019-05-11T20:57:03.708Z,1.10
2019-05-11T20:59:46.400Z,1.83
2019-05-11T21:02:38.099Z,1.37
2019-05-11T21:05:19.463Z,1.00
2019-05-11T21:08:20.472Z,1.60
2019-05-11T21:11:22.204Z,1.20
2019-05-11T21:14:08.242Z,1.20
2019-05-11T21:16:38.819Z,1.20
2019-05-11T21:22:58.027Z,1.20
2019-05-11T21:25:40.512Z,1.23
2019-05-11T21:31:37.731Z,0.93
2019-05-11T21:34:20.344Z,1.10
2019-05-11T21:37:02.444Z,1.30
2019-05-11T21:39:44.783Z,1.00
2019-05-11T21:46:01.276Z,1.40
2019-05-11T21:48:43.335Z,1.20
2019-05-11T21:54:19.719Z,1.40
2019-05-11T21:57:01.905Z,1.47
2019-05-11T22:00:02.851Z,1.30
2019-05-11T22:03:04.815Z,1.50
2019-05-11T22:06:08.456Z,1.50
2019-05-11T22:09:09.823Z,1.50
2019-05-11T22:15:04.640Z,1.07
2019-05-11T22:21:08.437Z,1.50
2019-05-11T22:23:50.676Z,1.67
2019-05-11T22:26:33.096Z,1.00
2019-05-11T22:31:58.455Z,1.40
2019-05-11T22:34:48.039Z,1.43
2019-05-11T22:37:58.417Z,1.20
2019-05-11T22:46:53.820Z,1.23
2019-05-11T22:49:36.071Z,1.00
2019-05-11T22:52:39.783Z,1.00
2019-05-11T22:55:40.263Z,1.40
2019-05-11T23:01:37.835Z,1.13
2019-05-11T23:07:34.913Z,1.20
2019-05-11T23:13:52.027Z,1.40
2019-05-11T23:16:34.599Z,1.57
2019-05-11T23:19:38.064Z,1.13
2019-05-11T23:25:42.353Z,1.10
2019-05-11T23:28:52.055Z,1.30
2019-05-11T23:34:38.779Z,1.40
2019-05-11T23:37:42.574Z,1.20
2019-05-11T23:40:23.911Z,1.20
2019-05-11T23:43:08.313Z,1.30
2019-05-11T23:45:49.884Z,1.60
2019-05-11T23:48:51.121Z,1.23
2019-05-11T23:51:52.923Z,1.13
2019-05-11T23:54:54.000Z,1.43
2019-05-11T23:57:57.511Z,1.80
